sensor_id;sensor_type;location;lat;lon;timestamp;P1;durP1;ratioP1;P2;durP2;ratioP2
10586;SDS011;5341;47.606;7.576;2022-10-29T00:00:51;8.95;;;5.38;;
10586;SDS011;5341;47.606;7.576;2022-10-29T00:03:21;9.50;;;5.15;;
10586;SDS011;5341;47.606;7.576;2022-10-29T00:05:58;10.70;;;4.82;;
10586;SDS011;5341;47.606;7.576;2022-10-29T00:08:32;8.05;;;4.95;;
10586;SDS011;5341;47.606;7.576;2022-10-29T00:11:05;8.40;;;4.68;;
10586;SDS011;5341;47.606;7.576;2022-10-29T00:13:34;13.15;;;5.10;;
10586;SDS011;5341;47.606;7.576;2022-10-29T00:16:06;7.75;;;4.18;;
10586;SDS011;5341;47.606;7.576;2022-10-29T00:18:35;7.05;;;4.30;;
10586;SDS011;5341;47.606;7.576;2022-10-29T00:21:08;9.77;;;5.03;;
10586;SDS011;5341;47.606;7.576;2022-10-29T00:23:38;9.05;;;5.30;;
10586;SDS011;5341;47.606;7.576;2022-10-29T00:26:06;8.50;;;4.78;;
10586;SDS011;5341;47.606;7.576;2022-10-29T00:28:33;6.40;;;4.93;;
10586;SDS011;5341;47.606;7.576;2022-10-29T00:31:02;8.35;;;4.80;;
10586;SDS011;5341;47.606;7.576;2022-10-29T00:33:33;13.45;;;5.10;;
10586;SDS011;5341;47.606;7.576;2022-10-29T00:36:01;9.27;;;5.18;;
10586;SDS011;5341;47.606;7.576;2022-10-29T00:38:32;9.63;;;5.25;;
10586;SDS011;5341;47.606;7.576;2022-10-29T00:41:01;9.93;;;4.80;;
10586;SDS011;5341;47.606;7.576;2022-10-29T00:43:32;10.23;;;4.97;;
10586;SDS011;5341;47.606;7.576;2022-10-29T00:46:02;7.03;;;4.68;;
10586;SDS011;5341;47.606;7.576;2022-10-29T00:48:34;7.00;;;4.53;;
10586;SDS011;5341;47.606;7.576;2022-10-29T00:51:06;9.80;;;5.10;;
10586;SDS011;5341;47.606;7.576;2022-10-29T00:53:40;9.18;;;5.07;;
10586;SDS011;5341;47.606;7.576;2022-10-29T00:56:10;9.23;;;4.97;;
10586;SDS011;5341;47.606;7.576;2022-10-29T00:58:39;9.23;;;4.90;;
10586;SDS011;5341;47.606;7.576;2022-10-29T01:01:07;7.15;;;4.40;;
10586;SDS011;5341;47.606;7.576;2022-10-29T01:03:36;6.40;;;4.38;;
10586;SDS011;5341;47.606;7.576;2022-10-29T01:06:05;8.85;;;4.35;;
10586;SDS011;5341;47.606;7.576;2022-10-29T01:08:34;5.93;;;4.00;;
10586;SDS011;5341;47.606;7.576;2022-10-29T01:11:06;9.45;;;4.95;;
10586;SDS011;5341;47.606;7.576;2022-10-29T01:13:46;7.65;;;4.80;;
10586;SDS011;5341;47.606;7.576;2022-10-29T01:16:27;7.22;;;4.40;;
10586;SDS011;5341;47.606;7.576;2022-10-29T01:19:09;9.15;;;4.68;;
10586;SDS011;5341;47.606;7.576;2022-10-29T01:21:43;8.20;;;4.55;;
10586;SDS011;5341;47.606;7.576;2022-10-29T01:24:31;10.77;;;4.18;;
10586;SDS011;5341;47.606;7.576;2022-10-29T01:27:30;10.50;;;4.65;;
10586;SDS011;5341;47.606;7.576;2022-10-29T01:30:15;8.48;;;4.50;;
10586;SDS011;5341;47.606;7.576;2022-10-29T01:32:51;7.30;;;4.35;;
10586;SDS011;5341;47.606;7.576;2022-10-29T01:35:28;8.35;;;4.38;;
10586;SDS011;5341;47.606;7.576;2022-10-29T01:38:06;10.38;;;4.70;;
10586;SDS011;5341;47.606;7.576;2022-10-29T01:40:44;10.60;;;4.80;;
10586;SDS011;5341;47.606;7.576;2022-10-29T01:43:26;7.55;;;4.45;;
10586;SDS011;5341;47.606;7.576;2022-10-29T01:46:03;7.70;;;4.20;;
10586;SDS011;5341;47.606;7.576;2022-10-29T01:48:39;12.15;;;4.43;;
10586;SDS011;5341;47.606;7.576;2022-10-29T01:51:12;12.18;;;4.80;;
10586;SDS011;5341;47.606;7.576;2022-10-29T01:53:46;8.38;;;4.22;;
10586;SDS011;5341;47.606;7.576;2022-10-29T01:56:16;7.93;;;4.20;;
10586;SDS011;5341;47.606;7.576;2022-10-29T01:58:46;9.65;;;4.07;;
10586;SDS011;5341;47.606;7.576;2022-10-29T02:01:23;8.68;;;4.40;;
10586;SDS011;5341;47.606;7.576;2022-10-29T02:04:24;7.93;;;4.22;;
10586;SDS011;5341;47.606;7.576;2022-10-29T02:07:14;9.80;;;4.25;;
10586;SDS011;5341;47.606;7.576;2022-10-29T02:09:56;9.50;;;4.22;;
10586;SDS011;5341;47.606;7.576;2022-10-29T02:12:29;6.43;;;4.18;;
10586;SDS011;5341;47.606;7.576;2022-10-29T02:15:06;7.88;;;4.40;;
10586;SDS011;5341;47.606;7.576;2022-10-29T02:17:38;8.10;;;4.28;;
10586;SDS011;5341;47.606;7.576;2022-10-29T02:20:09;7.90;;;4.25;;
10586;SDS011;5341;47.606;7.576;2022-10-29T02:22:38;8.50;;;4.20;;
10586;SDS011;5341;47.606;7.576;2022-10-29T02:25:07;7.07;;;4.22;;
10586;SDS011;5341;47.606;7.576;2022-10-29T02:27:36;7.40;;;4.70;;
10586;SDS011;5341;47.606;7.576;2022-10-29T02:30:06;7.25;;;4.15;;
10586;SDS011;5341;47.606;7.576;2022-10-29T02:32:36;8.13;;;4.20;;
10586;SDS011;5341;47.606;7.576;2022-10-29T02:35:05;6.47;;;4.10;;
10586;SDS011;5341;47.606;7.576;2022-10-29T02:37:37;7.78;;;4.32;;
10586;SDS011;5341;47.606;7.576;2022-10-29T02:40:06;6.65;;;4.20;;
10586;SDS011;5341;47.606;7.576;2022-10-29T02:42:34;8.25;;;4.15;;
10586;SDS011;5341;47.606;7.576;2022-10-29T02:45:02;7.53;;;4.13;;
10586;SDS011;5341;47.606;7.576;2022-10-29T02:47:30;8.15;;;4.07;;
10586;SDS011;5341;47.606;7.576;2022-10-29T02:49:58;11.32;;;4.82;;
10586;SDS011;5341;47.606;7.576;2022-10-29T02:52:26;8.07;;;4.50;;
10586;SDS011;5341;47.606;7.576;2022-10-29T02:54:56;9.80;;;4.70;;
10586;SDS011;5341;47.606;7.576;2022-10-29T02:57:24;7.70;;;4.00;;
10586;SDS011;5341;47.606;7.576;2022-10-29T02:59:52;9.57;;;4.40;;
10586;SDS011;5341;47.606;7.576;2022-10-29T03:02:19;7.50;;;4.13;;
10586;SDS011;5341;47.606;7.576;2022-10-29T03:04:47;8.70;;;4.57;;
10586;SDS011;5341;47.606;7.576;2022-10-29T03:07:14;12.05;;;4.57;;
10586;SDS011;5341;47.606;7.576;2022-10-29T03:09:42;8.35;;;4.07;;
10586;SDS011;5341;47.606;7.576;2022-10-29T03:12:11;9.32;;;4.35;;
10586;SDS011;5341;47.606;7.576;2022-10-29T03:14:38;10.63;;;4.32;;
10586;SDS011;5341;47.606;7.576;2022-10-29T03:17:06;7.43;;;5.00;;
10586;SDS011;5341;47.606;7.576;2022-10-29T03:19:33;8.10;;;4.57;;
10586;SDS011;5341;47.606;7.576;2022-10-29T03:22:01;11.40;;;4.45;;
10586;SDS011;5341;47.606;7.576;2022-10-29T03:24:28;10.85;;;4.25;;
10586;SDS011;5341;47.606;7.576;2022-10-29T03:26:56;10.25;;;5.03;;
10586;SDS011;5341;47.606;7.576;2022-10-29T03:29:25;7.05;;;4.00;;
10586;SDS011;5341;47.606;7.576;2022-10-29T03:31:53;9.95;;;4.25;;
10586;SDS011;5341;47.606;7.576;2022-10-29T03:34:21;8.85;;;4.53;;
10586;SDS011;5341;47.606;7.576;2022-10-29T03:36:48;9.25;;;4.00;;
10586;SDS011;5341;47.606;7.576;2022-10-29T03:39:16;7.70;;;3.90;;
10586;SDS011;5341;47.606;7.576;2022-10-29T03:41:44;7.05;;;4.40;;
10586;SDS011;5341;47.606;7.576;2022-10-29T03:44:11;7.60;;;4.47;;
10586;SDS011;5341;47.606;7.576;2022-10-29T03:46:40;10.38;;;4.50;;
10586;SDS011;5341;47.606;7.576;2022-10-29T03:49:08;7.63;;;3.92;;
10586;SDS011;5341;47.606;7.576;2022-10-29T03:51:35;9.57;;;4.30;;
10586;SDS011;5341;47.606;7.576;2022-10-29T03:54:04;8.88;;;3.92;;
10586;SDS011;5341;47.606;7.576;2022-10-29T03:56:31;9.45;;;3.90;;
10586;SDS011;5341;47.606;7.576;2022-10-29T03:58:59;6.90;;;3.97;;
10586;SDS011;5341;47.606;7.576;2022-10-29T04:01:27;8.85;;;4.20;;
10586;SDS011;5341;47.606;7.576;2022-10-29T04:03:56;9.00;;;4.50;;
10586;SDS011;5341;47.606;7.576;2022-10-29T04:06:24;7.57;;;4.18;;
10586;SDS011;5341;47.606;7.576;2022-10-29T04:08:51;6.28;;;4.13;;
10586;SDS011;5341;47.606;7.576;2022-10-29T04:11:19;8.90;;;4.43;;
10586;SDS011;5341;47.606;7.576;2022-10-29T04:13:50;8.90;;;4.35;;
10586;SDS011;5341;47.606;7.576;2022-10-29T04:16:18;5.85;;;3.95;;
10586;SDS011;5341;47.606;7.576;2022-10-29T04:18:46;7.72;;;4.30;;
10586;SDS011;5341;47.606;7.576;2022-10-29T04:21:15;7.68;;;3.97;;
10586;SDS011;5341;47.606;7.576;2022-10-29T04:23:43;10.90;;;4.60;;
10586;SDS011;5341;47.606;7.576;2022-10-29T04:26:11;6.43;;;4.05;;
10586;SDS011;5341;47.606;7.576;2022-10-29T04:28:41;8.52;;;4.45;;
10586;SDS011;5341;47.606;7.576;2022-10-29T04:31:10;8.70;;;3.97;;
10586;SDS011;5341;47.606;7.576;2022-10-29T04:33:38;10.88;;;4.07;;
10586;SDS011;5341;47.606;7.576;2022-10-29T04:36:07;8.60;;;4.18;;
10586;SDS011;5341;47.606;7.576;2022-10-29T04:38:36;8.68;;;4.20;;
10586;SDS011;5341;47.606;7.576;2022-10-29T04:41:04;5.60;;;3.83;;
10586;SDS011;5341;47.606;7.576;2022-10-29T04:43:32;9.60;;;4.07;;
10586;SDS011;5341;47.606;7.576;2022-10-29T04:45:59;8.85;;;3.90;;
10586;SDS011;5341;47.606;7.576;2022-10-29T04:48:27;6.57;;;4.22;;
10586;SDS011;5341;47.606;7.576;2022-10-29T04:50:55;6.13;;;3.85;;
10586;SDS011;5341;47.606;7.576;2022-10-29T04:53:23;7.18;;;4.05;;
10586;SDS011;5341;47.606;7.576;2022-10-29T04:55:57;7.80;;;4.35;;
10586;SDS011;5341;47.606;7.576;2022-10-29T04:58:26;7.43;;;3.83;;
10586;SDS011;5341;47.606;7.576;2022-10-29T05:00:59;6.97;;;3.83;;
10586;SDS011;5341;47.606;7.576;2022-10-29T05:03:29;7.38;;;3.90;;
10586;SDS011;5341;47.606;7.576;2022-10-29T05:05:57;7.65;;;4.07;;
10586;SDS011;5341;47.606;7.576;2022-10-29T05:08:25;7.28;;;4.57;;
10586;SDS011;5341;47.606;7.576;2022-10-29T05:10:54;8.95;;;3.97;;
10586;SDS011;5341;47.606;7.576;2022-10-29T05:13:21;7.72;;;3.75;;
10586;SDS011;5341;47.606;7.576;2022-10-29T05:15:50;7.10;;;4.35;;
10586;SDS011;5341;47.606;7.576;2022-10-29T05:18:18;7.78;;;4.05;;
10586;SDS011;5341;47.606;7.576;2022-10-29T05:20:45;7.38;;;4.45;;
10586;SDS011;5341;47.606;7.576;2022-10-29T05:23:13;5.45;;;4.22;;
10586;SDS011;5341;47.606;7.576;2022-10-29T05:25:40;6.55;;;3.85;;
10586;SDS011;5341;47.606;7.576;2022-10-29T05:28:10;7.47;;;4.40;;
10586;SDS011;5341;47.606;7.576;2022-10-29T05:30:38;10.30;;;4.30;;
10586;SDS011;5341;47.606;7.576;2022-10-29T05:33:08;7.85;;;4.93;;
10586;SDS011;5341;47.606;7.576;2022-10-29T05:35:37;7.50;;;4.28;;
10586;SDS011;5341;47.606;7.576;2022-10-29T05:38:04;9.50;;;4.55;;
10586;SDS011;5341;47.606;7.576;2022-10-29T05:40:32;6.10;;;4.63;;
10586;SDS011;5341;47.606;7.576;2022-10-29T05:43:00;11.45;;;4.70;;
10586;SDS011;5341;47.606;7.576;2022-10-29T05:45:29;13.30;;;5.25;;
10586;SDS011;5341;47.606;7.576;2022-10-29T05:47:57;9.77;;;4.70;;
10586;SDS011;5341;47.606;7.576;2022-10-29T05:50:26;10.32;;;4.63;;
10586;SDS011;5341;47.606;7.576;2022-10-29T05:52:54;11.13;;;4.35;;
10586;SDS011;5341;47.606;7.576;2022-10-29T05:55:22;9.90;;;4.53;;
10586;SDS011;5341;47.606;7.576;2022-10-29T05:57:53;8.52;;;4.22;;
10586;SDS011;5341;47.606;7.576;2022-10-29T06:00:21;10.27;;;4.53;;
10586;SDS011;5341;47.606;7.576;2022-10-29T06:02:50;7.90;;;4.30;;
10586;SDS011;5341;47.606;7.576;2022-10-29T06:05:18;6.80;;;4.43;;
10586;SDS011;5341;47.606;7.576;2022-10-29T06:07:45;8.25;;;4.07;;
10586;SDS011;5341;47.606;7.576;2022-10-29T06:10:20;7.43;;;4.40;;
10586;SDS011;5341;47.606;7.576;2022-10-29T06:12:47;7.38;;;4.43;;
10586;SDS011;5341;47.606;7.576;2022-10-29T06:15:17;10.75;;;4.40;;
10586;SDS011;5341;47.606;7.576;2022-10-29T06:17:45;5.78;;;4.28;;
10586;SDS011;5341;47.606;7.576;2022-10-29T06:20:15;10.15;;;4.32;;
10586;SDS011;5341;47.606;7.576;2022-10-29T06:22:46;7.03;;;4.03;;
10586;SDS011;5341;47.606;7.576;2022-10-29T06:25:14;7.78;;;4.57;;
10586;SDS011;5341;47.606;7.576;2022-10-29T06:27:42;8.15;;;4.32;;
10586;SDS011;5341;47.606;7.576;2022-10-29T06:30:10;6.63;;;4.30;;
10586;SDS011;5341;47.606;7.576;2022-10-29T06:32:38;7.32;;;4.35;;
10586;SDS011;5341;47.606;7.576;2022-10-29T06:35:06;8.20;;;3.90;;
10586;SDS011;5341;47.606;7.576;2022-10-29T06:37:37;8.25;;;4.55;;
10586;SDS011;5341;47.606;7.576;2022-10-29T06:40:06;8.10;;;4.55;;
10586;SDS011;5341;47.606;7.576;2022-10-29T06:42:34;10.55;;;4.13;;
10586;SDS011;5341;47.606;7.576;2022-10-29T06:45:02;7.53;;;4.35;;
10586;SDS011;5341;47.606;7.576;2022-10-29T06:47:36;9.10;;;4.35;;
10586;SDS011;5341;47.606;7.576;2022-10-29T06:50:05;7.05;;;4.10;;
10586;SDS011;5341;47.606;7.576;2022-10-29T06:52:33;6.65;;;4.13;;
10586;SDS011;5341;47.606;7.576;2022-10-29T06:55:06;8.25;;;4.40;;
10586;SDS011;5341;47.606;7.576;2022-10-29T06:57:35;9.25;;;4.57;;
10586;SDS011;5341;47.606;7.576;2022-10-29T07:00:03;12.95;;;5.18;;
10586;SDS011;5341;47.606;7.576;2022-10-29T07:02:31;9.90;;;4.95;;
10586;SDS011;5341;47.606;7.576;2022-10-29T07:04:59;10.98;;;5.30;;
10586;SDS011;5341;47.606;7.576;2022-10-29T07:07:27;12.50;;;4.90;;
10586;SDS011;5341;47.606;7.576;2022-10-29T07:09:55;13.60;;;5.07;;
10586;SDS011;5341;47.606;7.576;2022-10-29T07:12:24;9.93;;;5.03;;
10586;SDS011;5341;47.606;7.576;2022-10-29T07:14:52;10.95;;;5.47;;
10586;SDS011;5341;47.606;7.576;2022-10-29T07:17:20;11.50;;;5.00;;
10586;SDS011;5341;47.606;7.576;2022-10-29T07:19:48;12.38;;;4.90;;
10586;SDS011;5341;47.606;7.576;2022-10-29T07:22:18;10.20;;;5.38;;
10586;SDS011;5341;47.606;7.576;2022-10-29T07:24:46;11.32;;;4.45;;
10586;SDS011;5341;47.606;7.576;2022-10-29T07:27:14;7.93;;;4.95;;
10586;SDS011;5341;47.606;7.576;2022-10-29T07:29:43;10.70;;;4.90;;
10586;SDS011;5341;47.606;7.576;2022-10-29T07:32:12;9.50;;;4.60;;
10586;SDS011;5341;47.606;7.576;2022-10-29T07:34:39;9.15;;;5.10;;
10586;SDS011;5341;47.606;7.576;2022-10-29T07:37:07;8.48;;;4.85;;
10586;SDS011;5341;47.606;7.576;2022-10-29T07:39:36;9.13;;;4.65;;
10586;SDS011;5341;47.606;7.576;2022-10-29T07:42:04;7.88;;;3.90;;
10586;SDS011;5341;47.606;7.576;2022-10-29T07:44:32;9.65;;;4.63;;
10586;SDS011;5341;47.606;7.576;2022-10-29T07:47:02;6.57;;;4.80;;
10586;SDS011;5341;47.606;7.576;2022-10-29T07:49:30;7.47;;;4.47;;
10586;SDS011;5341;47.606;7.576;2022-10-29T07:51:58;9.25;;;4.47;;
10586;SDS011;5341;47.606;7.576;2022-10-29T07:54:28;10.32;;;4.68;;
10586;SDS011;5341;47.606;7.576;2022-10-29T07:56:56;9.45;;;4.50;;
10586;SDS011;5341;47.606;7.576;2022-10-29T07:59:24;9.30;;;4.82;;
10586;SDS011;5341;47.606;7.576;2022-10-29T08:01:51;10.98;;;5.35;;
10586;SDS011;5341;47.606;7.576;2022-10-29T08:04:21;10.75;;;4.95;;
10586;SDS011;5341;47.606;7.576;2022-10-29T08:06:48;11.15;;;4.82;;
10586;SDS011;5341;47.606;7.576;2022-10-29T08:09:15;11.57;;;5.20;;
10586;SDS011;5341;47.606;7.576;2022-10-29T08:11:43;7.10;;;4.30;;
10586;SDS011;5341;47.606;7.576;2022-10-29T08:14:12;9.05;;;4.80;;
10586;SDS011;5341;47.606;7.576;2022-10-29T08:16:40;7.65;;;4.38;;
10586;SDS011;5341;47.606;7.576;2022-10-29T08:19:09;8.55;;;4.82;;
10586;SDS011;5341;47.606;7.576;2022-10-29T08:21:39;10.70;;;5.47;;
10586;SDS011;5341;47.606;7.576;2022-10-29T08:24:06;9.27;;;4.70;;
10586;SDS011;5341;47.606;7.576;2022-10-29T08:26:35;9.93;;;4.72;;
10586;SDS011;5341;47.606;7.576;2022-10-29T08:29:03;10.40;;;4.63;;
10586;SDS011;5341;47.606;7.576;2022-10-29T08:31:31;9.68;;;4.55;;
10586;SDS011;5341;47.606;7.576;2022-10-29T08:33:58;10.38;;;4.93;;
10586;SDS011;5341;47.606;7.576;2022-10-29T08:36:26;13.48;;;4.90;;
10586;SDS011;5341;47.606;7.576;2022-10-29T08:38:55;10.60;;;4.97;;
10586;SDS011;5341;47.606;7.576;2022-10-29T08:41:27;11.32;;;4.13;;
10586;SDS011;5341;47.606;7.576;2022-10-29T08:44:02;9.90;;;4.80;;
10586;SDS011;5341;47.606;7.576;2022-10-29T08:46:42;9.55;;;4.72;;
10586;SDS011;5341;47.606;7.576;2022-10-29T08:49:14;9.05;;;4.65;;
10586;SDS011;5341;47.606;7.576;2022-10-29T08:51:46;9.68;;;5.05;;
10586;SDS011;5341;47.606;7.576;2022-10-29T08:54:20;10.40;;;4.47;;
10586;SDS011;5341;47.606;7.576;2022-10-29T08:56:53;8.55;;;4.20;;
10586;SDS011;5341;47.606;7.576;2022-10-29T08:59:25;7.65;;;4.53;;
10586;SDS011;5341;47.606;7.576;2022-10-29T09:01:55;8.90;;;4.32;;
10586;SDS011;5341;47.606;7.576;2022-10-29T09:04:23;8.02;;;4.30;;
10586;SDS011;5341;47.606;7.576;2022-10-29T09:06:56;7.80;;;4.32;;
10586;SDS011;5341;47.606;7.576;2022-10-29T09:09:48;6.88;;;3.95;;
10586;SDS011;5341;47.606;7.576;2022-10-29T09:12:37;12.02;;;4.25;;
10586;SDS011;5341;47.606;7.576;2022-10-29T09:15:23;10.88;;;3.83;;
10586;SDS011;5341;47.606;7.576;2022-10-29T09:20:55;8.27;;;4.50;;
10586;SDS011;5341;47.606;7.576;2022-10-29T09:23:37;11.32;;;4.35;;
10586;SDS011;5341;47.606;7.576;2022-10-29T09:26:19;10.13;;;4.55;;
10586;SDS011;5341;47.606;7.576;2022-10-29T09:28:54;12.18;;;4.72;;
10586;SDS011;5341;47.606;7.576;2022-10-29T09:31:33;7.85;;;4.68;;
10586;SDS011;5341;47.606;7.576;2022-10-29T09:34:09;12.02;;;4.80;;
10586;SDS011;5341;47.606;7.576;2022-10-29T09:36:42;9.93;;;5.03;;
10586;SDS011;5341;47.606;7.576;2022-10-29T09:39:11;9.82;;;4.80;;
10586;SDS011;5341;47.606;7.576;2022-10-29T09:41:43;9.82;;;4.53;;
10586;SDS011;5341;47.606;7.576;2022-10-29T09:44:13;8.95;;;4.75;;
10586;SDS011;5341;47.606;7.576;2022-10-29T09:46:48;9.70;;;4.40;;
10586;SDS011;5341;47.606;7.576;2022-10-29T09:49:27;14.45;;;5.32;;
10586;SDS011;5341;47.606;7.576;2022-10-29T09:52:05;8.75;;;4.65;;
10586;SDS011;5341;47.606;7.576;2022-10-29T09:54:36;8.70;;;4.38;;
10586;SDS011;5341;47.606;7.576;2022-10-29T09:57:05;7.80;;;4.35;;
10586;SDS011;5341;47.606;7.576;2022-10-29T09:59:39;11.05;;;4.57;;
10586;SDS011;5341;47.606;7.576;2022-10-29T10:02:21;10.30;;;4.50;;
10586;SDS011;5341;47.606;7.576;2022-10-29T10:04:55;9.70;;;4.78;;
10586;SDS011;5341;47.606;7.576;2022-10-29T10:07:27;13.40;;;4.95;;
10586;SDS011;5341;47.606;7.576;2022-10-29T10:09:55;8.10;;;4.43;;
10586;SDS011;5341;47.606;7.576;2022-10-29T10:12:28;8.82;;;4.13;;
10586;SDS011;5341;47.606;7.576;2022-10-29T10:15:18;8.90;;;4.55;;
10586;SDS011;5341;47.606;7.576;2022-10-29T10:17:53;7.40;;;4.13;;
10586;SDS011;5341;47.606;7.576;2022-10-29T10:20:27;8.82;;;4.25;;
10586;SDS011;5341;47.606;7.576;2022-10-29T10:23:17;8.98;;;4.50;;
10586;SDS011;5341;47.606;7.576;2022-10-29T10:25:47;8.85;;;4.05;;
10586;SDS011;5341;47.606;7.576;2022-10-29T10:28:18;9.02;;;4.40;;
10586;SDS011;5341;47.606;7.576;2022-10-29T10:31:05;12.43;;;4.32;;
10586;SDS011;5341;47.606;7.576;2022-10-29T10:33:43;9.82;;;4.50;;
10586;SDS011;5341;47.606;7.576;2022-10-29T10:36:16;11.13;;;3.80;;
10586;SDS011;5341;47.606;7.576;2022-10-29T10:38:47;9.80;;;3.42;;
10586;SDS011;5341;47.606;7.576;2022-10-29T10:41:20;13.30;;;4.07;;
10586;SDS011;5341;47.606;7.576;2022-10-29T10:43:51;13.80;;;4.47;;
10586;SDS011;5341;47.606;7.576;2022-10-29T10:46:25;10.70;;;4.18;;
10586;SDS011;5341;47.606;7.576;2022-10-29T10:49:01;13.43;;;4.03;;
10586;SDS011;5341;47.606;7.576;2022-10-29T10:51:33;14.77;;;3.72;;
10586;SDS011;5341;47.606;7.576;2022-10-29T10:54:03;8.52;;;3.97;;
10586;SDS011;5341;47.606;7.576;2022-10-29T10:56:54;9.07;;;3.58;;
10586;SDS011;5341;47.606;7.576;2022-10-29T10:59:26;10.30;;;3.50;;
10586;SDS011;5341;47.606;7.576;2022-10-29T11:02:04;10.95;;;3.97;;
10586;SDS011;5341;47.606;7.576;2022-10-29T11:04:40;6.88;;;3.22;;
10586;SDS011;5341;47.606;7.576;2022-10-29T11:07:09;9.82;;;3.75;;
10586;SDS011;5341;47.606;7.576;2022-10-29T11:09:41;14.43;;;4.22;;
10586;SDS011;5341;47.606;7.576;2022-10-29T11:12:12;14.60;;;4.30;;
10586;SDS011;5341;47.606;7.576;2022-10-29T11:14:47;9.95;;;3.85;;
10586;SDS011;5341;47.606;7.576;2022-10-29T11:17:24;11.10;;;4.22;;
10586;SDS011;5341;47.606;7.576;2022-10-29T11:19:54;13.48;;;3.90;;
10586;SDS011;5341;47.606;7.576;2022-10-29T11:22:27;10.02;;;4.47;;
10586;SDS011;5341;47.606;7.576;2022-10-29T11:24:59;12.93;;;3.28;;
10586;SDS011;5341;47.606;7.576;2022-10-29T11:27:36;14.30;;;3.65;;
10586;SDS011;5341;47.606;7.576;2022-10-29T11:30:13;9.15;;;3.60;;
10586;SDS011;5341;47.606;7.576;2022-10-29T11:32:45;10.88;;;3.60;;
10586;SDS011;5341;47.606;7.576;2022-10-29T11:35:23;10.40;;;3.67;;
10586;SDS011;5341;47.606;7.576;2022-10-29T11:37:59;11.55;;;4.30;;
10586;SDS011;5341;47.606;7.576;2022-10-29T11:40:34;15.10;;;4.55;;
10586;SDS011;5341;47.606;7.576;2022-10-29T11:43:09;12.85;;;3.42;;
10586;SDS011;5341;47.606;7.576;2022-10-29T11:45:48;14.70;;;4.13;;
10586;SDS011;5341;47.606;7.576;2022-10-29T11:48:27;15.40;;;4.30;;
10586;SDS011;5341;47.606;7.576;2022-10-29T11:51:09;8.50;;;3.65;;
10586;SDS011;5341;47.606;7.576;2022-10-29T11:53:51;13.23;;;3.92;;
10586;SDS011;5341;47.606;7.576;2022-10-29T11:56:28;10.07;;;3.90;;
10586;SDS011;5341;47.606;7.576;2022-10-29T11:59:10;11.43;;;3.70;;
10586;SDS011;5341;47.606;7.576;2022-10-29T12:01:47;12.00;;;3.53;;
10586;SDS011;5341;47.606;7.576;2022-10-29T12:04:23;8.65;;;3.75;;
10586;SDS011;5341;47.606;7.576;2022-10-29T12:07:03;9.43;;;3.28;;
10586;SDS011;5341;47.606;7.576;2022-10-29T12:09:49;8.82;;;3.72;;
10586;SDS011;5341;47.606;7.576;2022-10-29T12:12:35;14.32;;;3.33;;
10586;SDS011;5341;47.606;7.576;2022-10-29T12:15:12;13.35;;;4.20;;
10586;SDS011;5341;47.606;7.576;2022-10-29T12:17:51;12.07;;;3.72;;
10586;SDS011;5341;47.606;7.576;2022-10-29T12:20:28;8.73;;;3.47;;
10586;SDS011;5341;47.606;7.576;2022-10-29T12:23:06;9.02;;;3.75;;
10586;SDS011;5341;47.606;7.576;2022-10-29T12:25:52;9.50;;;3.75;;
10586;SDS011;5341;47.606;7.576;2022-10-29T12:28:31;12.27;;;3.67;;
10586;SDS011;5341;47.606;7.576;2022-10-29T12:31:12;10.45;;;3.53;;
10586;SDS011;5341;47.606;7.576;2022-10-29T12:33:52;11.30;;;3.38;;
10586;SDS011;5341;47.606;7.576;2022-10-29T12:36:28;10.40;;;3.65;;
10586;SDS011;5341;47.606;7.576;2022-10-29T12:39:02;16.02;;;3.88;;
10586;SDS011;5341;47.606;7.576;2022-10-29T12:41:37;10.77;;;3.22;;
10586;SDS011;5341;47.606;7.576;2022-10-29T12:44:11;8.75;;;3.67;;
10586;SDS011;5341;47.606;7.576;2022-10-29T12:46:46;10.15;;;3.45;;
10586;SDS011;5341;47.606;7.576;2022-10-29T12:49:27;13.15;;;3.40;;
10586;SDS011;5341;47.606;7.576;2022-10-29T12:52:08;12.55;;;3.67;;
10586;SDS011;5341;47.606;7.576;2022-10-29T12:54:40;11.55;;;3.95;;
10586;SDS011;5341;47.606;7.576;2022-10-29T12:57:18;8.35;;;3.35;;
10586;SDS011;5341;47.606;7.576;2022-10-29T12:59:55;9.32;;;3.60;;
10586;SDS011;5341;47.606;7.576;2022-10-29T13:02:25;12.20;;;3.70;;
10586;SDS011;5341;47.606;7.576;2022-10-29T13:05:13;20.15;;;4.68;;
10586;SDS011;5341;47.606;7.576;2022-10-29T13:08:09;9.82;;;3.55;;
10586;SDS011;5341;47.606;7.576;2022-10-29T13:10:53;10.60;;;3.78;;
10586;SDS011;5341;47.606;7.576;2022-10-29T13:13:24;11.45;;;3.65;;
10586;SDS011;5341;47.606;7.576;2022-10-29T13:16:05;13.73;;;3.85;;
10586;SDS011;5341;47.606;7.576;2022-10-29T13:18:43;10.00;;;3.60;;
10586;SDS011;5341;47.606;7.576;2022-10-29T13:24:18;14.20;;;3.97;;
10586;SDS011;5341;47.606;7.576;2022-10-29T13:26:51;11.50;;;3.70;;
10586;SDS011;5341;47.606;7.576;2022-10-29T13:29:46;8.57;;;3.38;;
10586;SDS011;5341;47.606;7.576;2022-10-29T13:32:28;10.23;;;3.83;;
10586;SDS011;5341;47.606;7.576;2022-10-29T13:34:58;13.77;;;4.22;;
10586;SDS011;5341;47.606;7.576;2022-10-29T13:43:36;13.70;;;3.60;;
10586;SDS011;5341;47.606;7.576;2022-10-29T13:46:25;15.20;;;4.00;;
10586;SDS011;5341;47.606;7.576;2022-10-29T13:49:00;11.70;;;3.80;;
10586;SDS011;5341;47.606;7.576;2022-10-29T13:51:38;11.07;;;3.90;;
10586;SDS011;5341;47.606;7.576;2022-10-29T13:54:14;11.70;;;3.83;;
10586;SDS011;5341;47.606;7.576;2022-10-29T13:56:48;12.32;;;3.85;;
10586;SDS011;5341;47.606;7.576;2022-10-29T13:59:25;8.95;;;3.60;;
10586;SDS011;5341;47.606;7.576;2022-10-29T14:02:12;8.18;;;3.38;;
10586;SDS011;5341;47.606;7.576;2022-10-29T14:04:58;14.23;;;3.92;;
10586;SDS011;5341;47.606;7.576;2022-10-29T14:07:46;17.25;;;5.05;;
10586;SDS011;5341;47.606;7.576;2022-10-29T14:10:22;23.27;;;6.18;;
10586;SDS011;5341;47.606;7.576;2022-10-29T14:12:59;15.98;;;4.85;;
10586;SDS011;5341;47.606;7.576;2022-10-29T14:15:36;19.23;;;4.85;;
10586;SDS011;5341;47.606;7.576;2022-10-29T14:18:16;19.17;;;4.45;;
10586;SDS011;5341;47.606;7.576;2022-10-29T14:20:52;12.25;;;4.15;;
10586;SDS011;5341;47.606;7.576;2022-10-29T14:23:22;9.18;;;3.78;;
10586;SDS011;5341;47.606;7.576;2022-10-29T14:25:52;9.43;;;3.20;;
10586;SDS011;5341;47.606;7.576;2022-10-29T14:28:26;13.63;;;3.70;;
10586;SDS011;5341;47.606;7.576;2022-10-29T14:30:58;11.00;;;3.28;;
10586;SDS011;5341;47.606;7.576;2022-10-29T14:33:31;12.68;;;3.70;;
10586;SDS011;5341;47.606;7.576;2022-10-29T14:36:06;13.80;;;4.05;;
10586;SDS011;5341;47.606;7.576;2022-10-29T14:38:42;13.60;;;3.95;;
10586;SDS011;5341;47.606;7.576;2022-10-29T14:41:13;14.50;;;4.15;;
10586;SDS011;5341;47.606;7.576;2022-10-29T14:43:43;11.65;;;4.25;;
10586;SDS011;5341;47.606;7.576;2022-10-29T14:46:21;8.82;;;3.40;;
10586;SDS011;5341;47.606;7.576;2022-10-29T14:48:52;12.85;;;3.90;;
10586;SDS011;5341;47.606;7.576;2022-10-29T14:51:23;14.18;;;4.20;;
10586;SDS011;5341;47.606;7.576;2022-10-29T14:53:53;14.63;;;3.78;;
10586;SDS011;5341;47.606;7.576;2022-10-29T14:56:26;13.38;;;3.92;;
10586;SDS011;5341;47.606;7.576;2022-10-29T14:59:01;12.82;;;3.88;;
10586;SDS011;5341;47.606;7.576;2022-10-29T15:01:43;10.50;;;3.88;;
10586;SDS011;5341;47.606;7.576;2022-10-29T15:04:19;15.48;;;4.35;;
10586;SDS011;5341;47.606;7.576;2022-10-29T15:06:49;13.77;;;4.40;;
10586;SDS011;5341;47.606;7.576;2022-10-29T15:09:17;16.90;;;4.25;;
10586;SDS011;5341;47.606;7.576;2022-10-29T15:12:05;13.95;;;4.10;;
10586;SDS011;5341;47.606;7.576;2022-10-29T15:14:36;17.13;;;4.00;;
10586;SDS011;5341;47.606;7.576;2022-10-29T15:17:15;10.43;;;4.05;;
10586;SDS011;5341;47.606;7.576;2022-10-29T15:19:46;11.10;;;3.47;;
10586;SDS011;5341;47.606;7.576;2022-10-29T15:22:18;12.63;;;4.03;;
10586;SDS011;5341;47.606;7.576;2022-10-29T15:24:50;8.48;;;3.55;;
10586;SDS011;5341;47.606;7.576;2022-10-29T15:27:20;11.88;;;3.67;;
10586;SDS011;5341;47.606;7.576;2022-10-29T15:29:50;9.68;;;3.53;;
10586;SDS011;5341;47.606;7.576;2022-10-29T15:32:19;13.07;;;3.80;;
10586;SDS011;5341;47.606;7.576;2022-10-29T15:34:48;15.15;;;3.90;;
10586;SDS011;5341;47.606;7.576;2022-10-29T15:37:22;14.80;;;3.63;;
10586;SDS011;5341;47.606;7.576;2022-10-29T15:39:59;13.77;;;3.67;;